sensor_id;sensor_type;location;lat;lon;timestamp;P1;durP1;ratioP1;P2;durP2;ratioP2
10389;SDS011;5241;47.830;12.972;2023-07-13T00:02:05;2.77;;;2.40;;
10389;SDS011;5241;47.830;12.972;2023-07-13T00:04:31;3.60;;;2.97;;
10389;SDS011;5241;47.830;12.972;2023-07-13T00:06:56;3.80;;;2.77;;
10389;SDS011;5241;47.830;12.972;2023-07-13T00:09:22;4.00;;;3.07;;
10389;SDS011;5241;47.830;12.972;2023-07-13T00:11:50;4.03;;;3.03;;
10389;SDS011;5241;47.830;12.972;2023-07-13T00:14:18;5.27;;;2.97;;
10389;SDS011;5241;47.830;12.972;2023-07-13T00:16:44;4.13;;;3.30;;
10389;SDS011;5241;47.830;12.972;2023-07-13T00:19:10;3.80;;;3.37;;
10389;SDS011;5241;47.830;12.972;2023-07-13T00:21:37;4.77;;;3.30;;
10389;SDS011;5241;47.830;12.972;2023-07-13T00:24:04;4.47;;;2.90;;
10389;SDS011;5241;47.830;12.972;2023-07-13T00:26:30;4.50;;;3.00;;
10389;SDS011;5241;47.830;12.972;2023-07-13T00:28:57;3.10;;;2.70;;
10389;SDS011;5241;47.830;12.972;2023-07-13T00:31:24;3.20;;;2.77;;
10389;SDS011;5241;47.830;12.972;2023-07-13T00:33:50;2.97;;;2.70;;
10389;SDS011;5241;47.830;12.972;2023-07-13T00:36:16;2.60;;;2.40;;
10389;SDS011;5241;47.830;12.972;2023-07-13T00:38:45;3.70;;;2.60;;
10389;SDS011;5241;47.830;12.972;2023-07-13T00:41:11;3.67;;;2.40;;
10389;SDS011;5241;47.830;12.972;2023-07-13T00:43:36;3.13;;;2.40;;
10389;SDS011;5241;47.830;12.972;2023-07-13T00:46:09;3.40;;;2.40;;
10389;SDS011;5241;47.830;12.972;2023-07-13T00:48:38;3.13;;;2.73;;
10389;SDS011;5241;47.830;12.972;2023-07-13T00:51:04;3.33;;;2.13;;
10389;SDS011;5241;47.830;12.972;2023-07-13T00:53:30;4.67;;;2.47;;
10389;SDS011;5241;47.830;12.972;2023-07-13T00:55:58;2.97;;;2.67;;
10389;SDS011;5241;47.830;12.972;2023-07-13T00:58:25;2.73;;;2.40;;
10389;SDS011;5241;47.830;12.972;2023-07-13T01:00:52;4.10;;;2.70;;
10389;SDS011;5241;47.830;12.972;2023-07-13T01:03:18;3.20;;;2.27;;
10389;SDS011;5241;47.830;12.972;2023-07-13T01:05:44;4.60;;;2.23;;
10389;SDS011;5241;47.830;12.972;2023-07-13T01:08:13;3.47;;;2.40;;
10389;SDS011;5241;47.830;12.972;2023-07-13T01:10:39;2.80;;;2.43;;
10389;SDS011;5241;47.830;12.972;2023-07-13T01:13:08;3.83;;;2.33;;
10389;SDS011;5241;47.830;12.972;2023-07-13T01:15:40;3.60;;;2.53;;
10389;SDS011;5241;47.830;12.972;2023-07-13T01:18:09;2.67;;;2.47;;
10389;SDS011;5241;47.830;12.972;2023-07-13T01:20:37;3.00;;;2.50;;
10389;SDS011;5241;47.830;12.972;2023-07-13T01:23:05;2.87;;;2.30;;
10389;SDS011;5241;47.830;12.972;2023-07-13T01:25:34;3.80;;;2.23;;
10389;SDS011;5241;47.830;12.972;2023-07-13T01:28:01;2.67;;;2.30;;
10389;SDS011;5241;47.830;12.972;2023-07-13T01:30:28;2.97;;;2.30;;
10389;SDS011;5241;47.830;12.972;2023-07-13T01:32:54;3.60;;;2.30;;
10389;SDS011;5241;47.830;12.972;2023-07-13T01:35:19;4.00;;;2.30;;
10389;SDS011;5241;47.830;12.972;2023-07-13T01:37:45;4.80;;;2.40;;
10389;SDS011;5241;47.830;12.972;2023-07-13T01:40:11;2.90;;;2.40;;
10389;SDS011;5241;47.830;12.972;2023-07-13T01:42:37;3.43;;;2.43;;
10389;SDS011;5241;47.830;12.972;2023-07-13T01:45:03;4.67;;;2.30;;
10389;SDS011;5241;47.830;12.972;2023-07-13T01:47:30;3.23;;;2.73;;
10389;SDS011;5241;47.830;12.972;2023-07-13T01:49:56;2.80;;;2.30;;
10389;SDS011;5241;47.830;12.972;2023-07-13T01:52:22;4.20;;;2.30;;
10389;SDS011;5241;47.830;12.972;2023-07-13T01:54:47;2.50;;;2.20;;
10389;SDS011;5241;47.830;12.972;2023-07-13T01:57:13;5.03;;;2.50;;
10389;SDS011;5241;47.830;12.972;2023-07-13T01:59:38;2.17;;;1.90;;
10389;SDS011;5241;47.830;12.972;2023-07-13T02:02:04;3.80;;;2.47;;
10389;SDS011;5241;47.830;12.972;2023-07-13T02:04:30;3.13;;;2.37;;
10389;SDS011;5241;47.830;12.972;2023-07-13T02:06:55;3.93;;;2.50;;
10389;SDS011;5241;47.830;12.972;2023-07-13T02:09:21;4.37;;;2.90;;
10389;SDS011;5241;47.830;12.972;2023-07-13T02:11:47;4.57;;;2.43;;
10389;SDS011;5241;47.830;12.972;2023-07-13T02:14:13;3.40;;;2.40;;
10389;SDS011;5241;47.830;12.972;2023-07-13T02:16:40;2.90;;;2.50;;
10389;SDS011;5241;47.830;12.972;2023-07-13T02:19:07;2.40;;;2.20;;
10389;SDS011;5241;47.830;12.972;2023-07-13T02:21:32;3.30;;;3.00;;
10389;SDS011;5241;47.830;12.972;2023-07-13T02:23:58;3.30;;;2.40;;
10389;SDS011;5241;47.830;12.972;2023-07-13T02:26:25;5.83;;;2.80;;
10389;SDS011;5241;47.830;12.972;2023-07-13T02:28:51;3.50;;;2.60;;
10389;SDS011;5241;47.830;12.972;2023-07-13T02:31:16;4.67;;;2.70;;
10389;SDS011;5241;47.830;12.972;2023-07-13T02:33:43;3.27;;;2.97;;
10389;SDS011;5241;47.830;12.972;2023-07-13T02:36:09;2.90;;;2.60;;
10389;SDS011;5241;47.830;12.972;2023-07-13T02:38:35;5.50;;;3.53;;
10389;SDS011;5241;47.830;12.972;2023-07-13T02:41:02;5.07;;;3.17;;
10389;SDS011;5241;47.830;12.972;2023-07-13T02:43:28;3.57;;;2.87;;
10389;SDS011;5241;47.830;12.972;2023-07-13T02:45:54;5.07;;;2.90;;
10389;SDS011;5241;47.830;12.972;2023-07-13T02:48:20;5.27;;;2.97;;
10389;SDS011;5241;47.830;12.972;2023-07-13T02:50:46;3.30;;;2.93;;
10389;SDS011;5241;47.830;12.972;2023-07-13T02:53:11;5.83;;;2.80;;
10389;SDS011;5241;47.830;12.972;2023-07-13T02:55:37;3.50;;;3.20;;
10389;SDS011;5241;47.830;12.972;2023-07-13T02:58:03;3.30;;;3.00;;
10389;SDS011;5241;47.830;12.972;2023-07-13T03:00:29;6.10;;;3.50;;
10389;SDS011;5241;47.830;12.972;2023-07-13T03:02:54;3.47;;;3.00;;
10389;SDS011;5241;47.830;12.972;2023-07-13T03:05:23;4.13;;;2.97;;
10389;SDS011;5241;47.830;12.972;2023-07-13T03:07:48;4.70;;;2.90;;
10389;SDS011;5241;47.830;12.972;2023-07-13T03:10:14;5.00;;;3.50;;
10389;SDS011;5241;47.830;12.972;2023-07-13T03:12:41;4.77;;;3.10;;
10389;SDS011;5241;47.830;12.972;2023-07-13T03:15:06;3.83;;;3.43;;
10389;SDS011;5241;47.830;12.972;2023-07-13T03:17:32;3.43;;;3.03;;
10389;SDS011;5241;47.830;12.972;2023-07-13T03:19:58;4.03;;;3.50;;
10389;SDS011;5241;47.830;12.972;2023-07-13T03:22:23;5.13;;;3.83;;
10389;SDS011;5241;47.830;12.972;2023-07-13T03:24:49;4.23;;;3.43;;
10389;SDS011;5241;47.830;12.972;2023-07-13T03:27:15;4.60;;;3.17;;
10389;SDS011;5241;47.830;12.972;2023-07-13T03:29:42;4.40;;;3.50;;
10389;SDS011;5241;47.830;12.972;2023-07-13T03:32:07;3.97;;;3.57;;
10389;SDS011;5241;47.830;12.972;2023-07-13T03:34:33;4.33;;;3.77;;
10389;SDS011;5241;47.830;12.972;2023-07-13T03:36:59;4.93;;;3.43;;
10389;SDS011;5241;47.830;12.972;2023-07-13T03:39:24;3.83;;;3.40;;
10389;SDS011;5241;47.830;12.972;2023-07-13T03:41:50;4.13;;;3.73;;
10389;SDS011;5241;47.830;12.972;2023-07-13T03:44:16;3.93;;;3.63;;
10389;SDS011;5241;47.830;12.972;2023-07-13T03:46:42;4.40;;;3.60;;
10389;SDS011;5241;47.830;12.972;2023-07-13T03:49:08;4.40;;;3.70;;
10389;SDS011;5241;47.830;12.972;2023-07-13T03:51:34;3.90;;;3.50;;
10389;SDS011;5241;47.830;12.972;2023-07-13T03:54:00;4.20;;;3.43;;
10389;SDS011;5241;47.830;12.972;2023-07-13T03:56:25;3.90;;;3.60;;
10389;SDS011;5241;47.830;12.972;2023-07-13T03:58:52;5.67;;;3.63;;
10389;SDS011;5241;47.830;12.972;2023-07-13T04:01:18;3.87;;;3.50;;
10389;SDS011;5241;47.830;12.972;2023-07-13T04:03:45;3.53;;;3.10;;
10389;SDS011;5241;47.830;12.972;2023-07-13T04:06:18;4.20;;;3.10;;
10389;SDS011;5241;47.830;12.972;2023-07-13T04:08:49;4.13;;;3.13;;
10389;SDS011;5241;47.830;12.972;2023-07-13T04:11:20;5.23;;;3.33;;
10389;SDS011;5241;47.830;12.972;2023-07-13T04:13:48;3.50;;;3.13;;
10389;SDS011;5241;47.830;12.972;2023-07-13T04:16:14;3.27;;;2.97;;
10389;SDS011;5241;47.830;12.972;2023-07-13T04:18:41;4.10;;;2.90;;
10389;SDS011;5241;47.830;12.972;2023-07-13T04:21:06;5.80;;;3.13;;
10389;SDS011;5241;47.830;12.972;2023-07-13T04:23:33;3.10;;;2.80;;
10389;SDS011;5241;47.830;12.972;2023-07-13T04:25:58;5.00;;;3.50;;
10389;SDS011;5241;47.830;12.972;2023-07-13T04:28:24;3.70;;;3.40;;
10389;SDS011;5241;47.830;12.972;2023-07-13T04:30:51;3.83;;;3.30;;
10389;SDS011;5241;47.830;12.972;2023-07-13T04:33:17;4.63;;;3.30;;
10389;SDS011;5241;47.830;12.972;2023-07-13T04:35:43;4.00;;;3.50;;
10389;SDS011;5241;47.830;12.972;2023-07-13T04:38:11;3.40;;;3.10;;
10389;SDS011;5241;47.830;12.972;2023-07-13T04:40:37;4.10;;;2.73;;
10389;SDS011;5241;47.830;12.972;2023-07-13T04:43:03;3.23;;;2.50;;
10389;SDS011;5241;47.830;12.972;2023-07-13T04:45:28;3.40;;;2.87;;
10389;SDS011;5241;47.830;12.972;2023-07-13T04:47:54;3.90;;;2.67;;
10389;SDS011;5241;47.830;12.972;2023-07-13T04:50:19;4.00;;;2.80;;
10389;SDS011;5241;47.830;12.972;2023-07-13T04:52:48;2.50;;;2.30;;
10389;SDS011;5241;47.830;12.972;2023-07-13T04:55:15;4.37;;;2.40;;
10389;SDS011;5241;47.830;12.972;2023-07-13T04:57:41;4.00;;;2.60;;
10389;SDS011;5241;47.830;12.972;2023-07-13T05:00:07;3.17;;;2.50;;
10389;SDS011;5241;47.830;12.972;2023-07-13T05:02:33;2.77;;;2.50;;
10389;SDS011;5241;47.830;12.972;2023-07-13T05:05:00;2.90;;;2.27;;
10389;SDS011;5241;47.830;12.972;2023-07-13T05:07:26;3.10;;;2.40;;
10389;SDS011;5241;47.830;12.972;2023-07-13T05:09:51;3.60;;;2.50;;
10389;SDS011;5241;47.830;12.972;2023-07-13T05:12:17;4.13;;;2.30;;
10389;SDS011;5241;47.830;12.972;2023-07-13T05:14:43;4.40;;;3.00;;
10389;SDS011;5241;47.830;12.972;2023-07-13T05:17:09;4.83;;;2.60;;
10389;SDS011;5241;47.830;12.972;2023-07-13T05:19:35;4.70;;;2.50;;
10389;SDS011;5241;47.830;12.972;2023-07-13T05:22:00;3.07;;;2.73;;
10389;SDS011;5241;47.830;12.972;2023-07-13T05:24:27;3.30;;;3.00;;
10389;SDS011;5241;47.830;12.972;2023-07-13T05:26:53;3.97;;;3.33;;
10389;SDS011;5241;47.830;12.972;2023-07-13T05:29:19;4.43;;;3.33;;
10389;SDS011;5241;47.830;12.972;2023-07-13T05:31:45;3.53;;;3.17;;
10389;SDS011;5241;47.830;12.972;2023-07-13T05:34:10;4.60;;;3.23;;
10389;SDS011;5241;47.830;12.972;2023-07-13T05:36:36;3.87;;;3.10;;
10389;SDS011;5241;47.830;12.972;2023-07-13T05:39:02;4.30;;;3.03;;
10389;SDS011;5241;47.830;12.972;2023-07-13T05:41:29;4.03;;;2.90;;
10389;SDS011;5241;47.830;12.972;2023-07-13T05:43:54;3.93;;;2.30;;
10389;SDS011;5241;47.830;12.972;2023-07-13T05:46:20;2.93;;;2.63;;
10389;SDS011;5241;47.830;12.972;2023-07-13T05:48:45;3.90;;;2.50;;
10389;SDS011;5241;47.830;12.972;2023-07-13T05:51:11;3.90;;;2.37;;
10389;SDS011;5241;47.830;12.972;2023-07-13T05:53:36;4.27;;;2.40;;
10389;SDS011;5241;47.830;12.972;2023-07-13T05:56:02;2.60;;;2.40;;
10389;SDS011;5241;47.830;12.972;2023-07-13T05:58:28;2.90;;;2.27;;
10389;SDS011;5241;47.830;12.972;2023-07-13T06:01:06;4.47;;;2.37;;
10389;SDS011;5241;47.830;12.972;2023-07-13T06:03:37;2.30;;;2.10;;
10389;SDS011;5241;47.830;12.972;2023-07-13T06:06:04;4.27;;;2.60;;
10389;SDS011;5241;47.830;12.972;2023-07-13T06:08:30;2.70;;;2.47;;
10389;SDS011;5241;47.830;12.972;2023-07-13T06:13:52;2.73;;;2.30;;
10389;SDS011;5241;47.830;12.972;2023-07-13T06:16:19;1.90;;;1.80;;
10389;SDS011;5241;47.830;12.972;2023-07-13T06:18:44;2.23;;;2.03;;
10389;SDS011;5241;47.830;12.972;2023-07-13T06:21:12;3.50;;;2.10;;
10389;SDS011;5241;47.830;12.972;2023-07-13T06:23:42;2.67;;;2.10;;
10389;SDS011;5241;47.830;12.972;2023-07-13T06:26:09;3.87;;;2.20;;
10389;SDS011;5241;47.830;12.972;2023-07-13T06:28:35;2.40;;;2.20;;
10389;SDS011;5241;47.830;12.972;2023-07-13T06:31:04;3.37;;;2.60;;
10389;SDS011;5241;47.830;12.972;2023-07-13T06:33:34;4.10;;;2.43;;
10389;SDS011;5241;47.830;12.972;2023-07-13T06:36:00;2.60;;;2.40;;
10389;SDS011;5241;47.830;12.972;2023-07-13T06:38:26;2.97;;;2.67;;
10389;SDS011;5241;47.830;12.972;2023-07-13T06:40:52;3.93;;;2.60;;
10389;SDS011;5241;47.830;12.972;2023-07-13T06:43:18;3.90;;;2.77;;
10389;SDS011;5241;47.830;12.972;2023-07-13T06:45:45;4.03;;;2.50;;
10389;SDS011;5241;47.830;12.972;2023-07-13T06:48:14;2.93;;;2.30;;
10389;SDS011;5241;47.830;12.972;2023-07-13T06:50:43;3.70;;;2.50;;
10389;SDS011;5241;47.830;12.972;2023-07-13T06:53:10;7.57;;;2.87;;
10389;SDS011;5241;47.830;12.972;2023-07-13T06:55:36;3.63;;;2.97;;
10389;SDS011;5241;47.830;12.972;2023-07-13T06:58:02;3.10;;;2.80;;
10389;SDS011;5241;47.830;12.972;2023-07-13T07:00:27;4.03;;;3.03;;
10389;SDS011;5241;47.830;12.972;2023-07-13T07:02:53;3.60;;;3.10;;
10389;SDS011;5241;47.830;12.972;2023-07-13T07:05:19;6.33;;;2.90;;
10389;SDS011;5241;47.830;12.972;2023-07-13T07:07:46;3.63;;;2.60;;
10389;SDS011;5241;47.830;12.972;2023-07-13T07:10:16;4.07;;;2.83;;
10389;SDS011;5241;47.830;12.972;2023-07-13T07:12:42;4.23;;;3.03;;
10389;SDS011;5241;47.830;12.972;2023-07-13T07:15:08;3.13;;;2.83;;
10389;SDS011;5241;47.830;12.972;2023-07-13T07:17:34;5.00;;;3.63;;
10389;SDS011;5241;47.830;12.972;2023-07-13T07:19:59;3.10;;;2.80;;
10389;SDS011;5241;47.830;12.972;2023-07-13T07:22:25;4.07;;;3.00;;
10389;SDS011;5241;47.830;12.972;2023-07-13T07:24:52;5.30;;;3.27;;
10389;SDS011;5241;47.830;12.972;2023-07-13T07:27:18;3.43;;;3.00;;
10389;SDS011;5241;47.830;12.972;2023-07-13T07:29:44;4.13;;;2.67;;
10389;SDS011;5241;47.830;12.972;2023-07-13T07:32:10;2.80;;;2.60;;
10389;SDS011;5241;47.830;12.972;2023-07-13T07:34:35;3.30;;;3.00;;
10389;SDS011;5241;47.830;12.972;2023-07-13T07:37:01;3.10;;;2.50;;
10389;SDS011;5241;47.830;12.972;2023-07-13T07:39:27;2.93;;;2.73;;
10389;SDS011;5241;47.830;12.972;2023-07-13T07:41:52;3.00;;;2.67;;
10389;SDS011;5241;47.830;12.972;2023-07-13T07:44:18;2.70;;;2.40;;
10389;SDS011;5241;47.830;12.972;2023-07-13T07:46:44;3.03;;;2.70;;
10389;SDS011;5241;47.830;12.972;2023-07-13T07:49:10;2.93;;;2.53;;
10389;SDS011;5241;47.830;12.972;2023-07-13T07:51:35;3.20;;;2.83;;
10389;SDS011;5241;47.830;12.972;2023-07-13T07:54:01;3.07;;;2.70;;
10389;SDS011;5241;47.830;12.972;2023-07-13T07:56:27;3.57;;;2.90;;
10389;SDS011;5241;47.830;12.972;2023-07-13T07:58:52;2.77;;;2.57;;
10389;SDS011;5241;47.830;12.972;2023-07-13T08:01:18;2.33;;;2.13;;
10389;SDS011;5241;47.830;12.972;2023-07-13T08:03:43;3.90;;;2.50;;
10389;SDS011;5241;47.830;12.972;2023-07-13T08:06:09;4.53;;;2.60;;
10389;SDS011;5241;47.830;12.972;2023-07-13T08:08:35;3.60;;;2.20;;
10389;SDS011;5241;47.830;12.972;2023-07-13T08:11:04;2.57;;;2.20;;
10389;SDS011;5241;47.830;12.972;2023-07-13T08:13:32;3.20;;;2.20;;
10389;SDS011;5241;47.830;12.972;2023-07-13T08:15:58;2.47;;;2.27;;
10389;SDS011;5241;47.830;12.972;2023-07-13T08:18:24;2.83;;;2.27;;
10389;SDS011;5241;47.830;12.972;2023-07-13T08:20:50;2.70;;;2.47;;
10389;SDS011;5241;47.830;12.972;2023-07-13T08:23:15;4.13;;;2.33;;
10389;SDS011;5241;47.830;12.972;2023-07-13T08:25:41;2.57;;;2.20;;
10389;SDS011;5241;47.830;12.972;2023-07-13T08:28:07;3.33;;;2.30;;
10389;SDS011;5241;47.830;12.972;2023-07-13T08:30:33;3.07;;;2.00;;
10389;SDS011;5241;47.830;12.972;2023-07-13T08:32:59;3.27;;;2.50;;
10389;SDS011;5241;47.830;12.972;2023-07-13T08:35:24;2.67;;;1.80;;
10389;SDS011;5241;47.830;12.972;2023-07-13T08:37:50;3.23;;;2.20;;
10389;SDS011;5241;47.830;12.972;2023-07-13T08:40:16;4.60;;;2.40;;
10389;SDS011;5241;47.830;12.972;2023-07-13T08:42:45;3.03;;;2.20;;
10389;SDS011;5241;47.830;12.972;2023-07-13T08:46:02;4.20;;;2.40;;
10389;SDS011;5241;47.830;12.972;2023-07-13T08:48:18;2.47;;;2.20;;
10389;SDS011;5241;47.830;12.972;2023-07-13T08:50:55;2.40;;;2.20;;
10389;SDS011;5241;47.830;12.972;2023-07-13T08:53:34;2.23;;;1.83;;
10389;SDS011;5241;47.830;12.972;2023-07-13T08:56:03;3.00;;;2.40;;
10389;SDS011;5241;47.830;12.972;2023-07-13T08:58:38;2.83;;;2.13;;
10389;SDS011;5241;47.830;12.972;2023-07-13T09:01:40;2.20;;;2.00;;
10389;SDS011;5241;47.830;12.972;2023-07-13T09:06:31;3.80;;;2.10;;
10389;SDS011;5241;47.830;12.972;2023-07-13T09:09:07;2.53;;;2.30;;
10389;SDS011;5241;47.830;12.972;2023-07-13T09:12:14;3.17;;;1.80;;
10389;SDS011;5241;47.830;12.972;2023-07-13T09:15:01;3.27;;;2.27;;
10389;SDS011;5241;47.830;12.972;2023-07-13T09:17:32;2.47;;;2.17;;
10389;SDS011;5241;47.830;12.972;2023-07-13T09:20:10;3.83;;;2.40;;
10389;SDS011;5241;47.830;12.972;2023-07-13T09:22:46;2.80;;;2.30;;
10389;SDS011;5241;47.830;12.972;2023-07-13T09:28:15;3.23;;;2.53;;
10389;SDS011;5241;47.830;12.972;2023-07-13T09:33:21;2.93;;;2.20;;
10389;SDS011;5241;47.830;12.972;2023-07-13T09:35:47;7.97;;;2.67;;
10389;SDS011;5241;47.830;12.972;2023-07-13T09:38:14;2.60;;;2.00;;
10389;SDS011;5241;47.830;12.972;2023-07-13T09:43:28;3.40;;;2.23;;
10389;SDS011;5241;47.830;12.972;2023-07-13T09:45:54;2.97;;;2.20;;
10389;SDS011;5241;47.830;12.972;2023-07-13T09:48:20;3.60;;;2.50;;
10389;SDS011;5241;47.830;12.972;2023-07-13T09:50:46;2.50;;;1.80;;
10389;SDS011;5241;47.830;12.972;2023-07-13T09:53:17;2.67;;;2.10;;
10389;SDS011;5241;47.830;12.972;2023-07-13T09:55:45;2.40;;;2.20;;
10389;SDS011;5241;47.830;12.972;2023-07-13T09:58:16;3.30;;;1.90;;
10389;SDS011;5241;47.830;12.972;2023-07-13T10:00:55;2.53;;;2.07;;
10389;SDS011;5241;47.830;12.972;2023-07-13T10:03:24;3.97;;;2.17;;
10389;SDS011;5241;47.830;12.972;2023-07-13T10:05:52;2.50;;;2.00;;
10389;SDS011;5241;47.830;12.972;2023-07-13T10:11:08;3.23;;;2.10;;
10389;SDS011;5241;47.830;12.972;2023-07-13T10:13:37;3.07;;;2.33;;
10389;SDS011;5241;47.830;12.972;2023-07-13T10:16:07;2.43;;;2.23;;
10389;SDS011;5241;47.830;12.972;2023-07-13T10:18:43;2.50;;;1.97;;
10389;SDS011;5241;47.830;12.972;2023-07-13T10:23:45;2.97;;;1.97;;
10389;SDS011;5241;47.830;12.972;2023-07-13T10:26:16;2.63;;;1.90;;
10389;SDS011;5241;47.830;12.972;2023-07-13T10:28:47;2.60;;;2.10;;
10389;SDS011;5241;47.830;12.972;2023-07-13T10:31:18;3.60;;;2.10;;
10389;SDS011;5241;47.830;12.972;2023-07-13T10:33:45;3.90;;;2.17;;
10389;SDS011;5241;47.830;12.972;2023-07-13T10:36:12;4.97;;;2.47;;
10389;SDS011;5241;47.830;12.972;2023-07-13T10:38:53;3.03;;;2.20;;
10389;SDS011;5241;47.830;12.972;2023-07-13T10:41:23;5.50;;;2.07;;
10389;SDS011;5241;47.830;12.972;2023-07-13T10:43:51;2.90;;;2.30;;
10389;SDS011;5241;47.830;12.972;2023-07-13T10:46:20;2.70;;;1.70;;
10389;SDS011;5241;47.830;12.972;2023-07-13T10:48:52;3.13;;;2.00;;
10389;SDS011;5241;47.830;12.972;2023-07-13T10:51:37;2.40;;;1.93;;
10389;SDS011;5241;47.830;12.972;2023-07-13T10:54:18;4.57;;;2.13;;
10389;SDS011;5241;47.830;12.972;2023-07-13T10:57:14;3.83;;;2.00;;
10389;SDS011;5241;47.830;12.972;2023-07-13T11:00:10;3.40;;;2.10;;
10389;SDS011;5241;47.830;12.972;2023-07-13T11:02:40;3.70;;;2.30;;
10389;SDS011;5241;47.830;12.972;2023-07-13T11:05:14;4.70;;;2.30;;
10389;SDS011;5241;47.830;12.972;2023-07-13T11:07:54;7.47;;;2.53;;
10389;SDS011;5241;47.830;12.972;2023-07-13T11:10:47;2.93;;;2.50;;
10389;SDS011;5241;47.830;12.972;2023-07-13T11:21:20;5.10;;;2.80;;
10389;SDS011;5241;47.830;12.972;2023-07-13T11:23:55;5.47;;;2.83;;
10389;SDS011;5241;47.830;12.972;2023-07-13T11:31:58;5.37;;;2.33;;
10389;SDS011;5241;47.830;12.972;2023-07-13T11:34:30;3.83;;;2.13;;
10389;SDS011;5241;47.830;12.972;2023-07-13T11:37:01;2.70;;;2.40;;
10389;SDS011;5241;47.830;12.972;2023-07-13T11:39:31;3.67;;;2.50;;
10389;SDS011;5241;47.830;12.972;2023-07-13T11:42:00;3.43;;;2.70;;
10389;SDS011;5241;47.830;12.972;2023-07-13T11:44:30;2.90;;;2.43;;
10389;SDS011;5241;47.830;12.972;2023-07-13T11:46:58;3.57;;;2.43;;
10389;SDS011;5241;47.830;12.972;2023-07-13T11:49:26;2.93;;;2.13;;
10389;SDS011;5241;47.830;12.972;2023-07-13T11:51:54;4.70;;;2.77;;
10389;SDS011;5241;47.830;12.972;2023-07-13T11:56:51;3.70;;;2.57;;
10389;SDS011;5241;47.830;12.972;2023-07-13T11:59:18;2.93;;;2.60;;
10389;SDS011;5241;47.830;12.972;2023-07-13T12:01:48;2.77;;;2.50;;
10389;SDS011;5241;47.830;12.972;2023-07-13T12:06:53;3.27;;;2.70;;
10389;SDS011;5241;47.830;12.972;2023-07-13T12:09:20;3.87;;;2.77;;
10389;SDS011;5241;47.830;12.972;2023-07-13T12:11:50;5.80;;;3.17;;
10389;SDS011;5241;47.830;12.972;2023-07-13T12:14:16;3.77;;;2.77;;
10389;SDS011;5241;47.830;12.972;2023-07-13T12:16:43;4.87;;;2.90;;
10389;SDS011;5241;47.830;12.972;2023-07-13T12:19:29;3.33;;;2.90;;
10389;SDS011;5241;47.830;12.972;2023-07-13T12:21:58;4.30;;;2.60;;
10389;SDS011;5241;47.830;12.972;2023-07-13T12:24:24;4.80;;;2.97;;
10389;SDS011;5241;47.830;12.972;2023-07-13T12:26:52;3.90;;;2.83;;
10389;SDS011;5241;47.830;12.972;2023-07-13T12:29:19;5.03;;;3.17;;
10389;SDS011;5241;47.830;12.972;2023-07-13T12:31:45;4.63;;;3.10;;
10389;SDS011;5241;47.830;12.972;2023-07-13T12:34:17;3.50;;;3.00;;
10389;SDS011;5241;47.830;12.972;2023-07-13T12:36:46;4.63;;;2.97;;
10389;SDS011;5241;47.830;12.972;2023-07-13T12:39:24;3.43;;;3.00;;
10389;SDS011;5241;47.830;12.972;2023-07-13T12:42:00;5.90;;;3.23;;
10389;SDS011;5241;47.830;12.972;2023-07-13T12:44:57;4.70;;;3.13;;
10389;SDS011;5241;47.830;12.972;2023-07-13T12:47:26;4.83;;;3.10;;
10389;SDS011;5241;47.830;12.972;2023-07-13T12:49:54;4.40;;;3.23;;
10389;SDS011;5241;47.830;12.972;2023-07-13T12:52:23;3.87;;;2.60;;
10389;SDS011;5241;47.830;12.972;2023-07-13T12:54:56;4.50;;;2.80;;
10389;SDS011;5241;47.830;12.972;2023-07-13T12:57:30;5.90;;;3.17;;
10389;SDS011;5241;47.830;12.972;2023-07-13T12:59:56;4.93;;;3.17;;
10389;SDS011;5241;47.830;12.972;2023-07-13T13:02:29;5.93;;;3.00;;
10389;SDS011;5241;47.830;12.972;2023-07-13T13:04:57;3.47;;;2.77;;
10389;SDS011;5241;47.830;12.972;2023-07-13T13:07:23;4.87;;;2.90;;
10389;SDS011;5241;47.830;12.972;2023-07-13T13:09:50;4.97;;;2.60;;
10389;SDS011;5241;47.830;12.972;2023-07-13T13:12:17;3.27;;;2.33;;
10389;SDS011;5241;47.830;12.972;2023-07-13T13:14:43;2.90;;;2.30;;
10389;SDS011;5241;47.830;12.972;2023-07-13T13:17:19;2.50;;;2.30;;
10389;SDS011;5241;47.830;12.972;2023-07-13T13:19:46;3.33;;;2.33;;
10389;SDS011;5241;47.830;12.972;2023-07-13T13:22:12;4.63;;;2.20;;
10389;SDS011;5241;47.830;12.972;2023-07-13T13:24:38;3.47;;;2.13;;
10389;SDS011;5241;47.830;12.972;2023-07-13T13:27:04;3.30;;;2.33;;
10389;SDS011;5241;47.830;12.972;2023-07-13T13:29:31;6.83;;;2.50;;
10389;SDS011;5241;47.830;12.972;2023-07-13T13:31:57;3.63;;;2.20;;
10389;SDS011;5241;47.830;12.972;2023-07-13T13:34:24;3.37;;;1.90;;
10389;SDS011;5241;47.830;12.972;2023-07-13T13:36:50;3.40;;;2.10;;
10389;SDS011;5241;47.830;12.972;2023-07-13T13:39:24;2.97;;;1.93;;
10389;SDS011;5241;47.830;12.972;2023-07-13T13:41:54;5.20;;;2.13;;
10389;SDS011;5241;47.830;12.972;2023-07-13T13:44:20;3.83;;;1.90;;
10389;SDS011;5241;47.830;12.972;2023-07-13T13:46:50;2.20;;;1.80;;
10389;SDS011;5241;47.830;12.972;2023-07-13T13:49:19;1.70;;;1.50;;
10389;SDS011;5241;47.830;12.972;2023-07-13T13:51:51;4.27;;;1.53;;
10389;SDS011;5241;47.830;12.972;2023-07-13T13:54:18;3.07;;;1.83;;
10389;SDS011;5241;47.830;12.972;2023-07-13T13:56:46;2.57;;;1.60;;
10389;SDS011;5241;47.830;12.972;2023-07-13T13:59:14;1.60;;;1.50;;
10389;SDS011;5241;47.830;12.972;2023-07-13T14:01:40;3.23;;;1.70;;
10389;SDS011;5241;47.830;12.972;2023-07-13T14:04:09;3.13;;;1.60;;
10389;SDS011;5241;47.830;12.972;2023-07-13T14:06:46;2.47;;;1.93;;
10389;SDS011;5241;47.830;12.972;2023-07-13T14:09:14;2.33;;;2.03;;
10389;SDS011;5241;47.830;12.972;2023-07-13T14:11:41;2.27;;;1.53;;
10389;SDS011;5241;47.830;12.972;2023-07-13T14:14:09;2.70;;;1.70;;
10389;SDS011;5241;47.830;12.972;2023-07-13T14:16:41;2.37;;;1.97;;
10389;SDS011;5241;47.830;12.972;2023-07-13T14:19:11;1.60;;;1.50;;
10389;SDS011;5241;47.830;12.972;2023-07-13T14:21:39;2.63;;;1.50;;
10389;SDS011;5241;47.830;12.972;2023-07-13T14:24:05;1.77;;;1.60;;
10389;SDS011;5241;47.830;12.972;2023-07-13T14:26:31;1.73;;;1.40;;
10389;SDS011;5241;47.830;12.972;2023-07-13T14:29:13;1.90;;;1.50;;
10389;SDS011;5241;47.830;12.972;2023-07-13T14:31:42;2.70;;;1.47;;
10389;SDS011;5241;47.830;12.972;2023-07-13T14:34:11;1.70;;;1.30;;
10389;SDS011;5241;47.830;12.972;2023-07-13T14:39:20;2.13;;;1.63;;
10389;SDS011;5241;47.830;12.972;2023-07-13T14:41:49;1.50;;;1.30;;
10389;SDS011;5241;47.830;12.972;2023-07-13T14:44:20;1.30;;;1.20;;
10389;SDS011;5241;47.830;12.972;2023-07-13T14:46:48;1.70;;;1.33;;
10389;SDS011;5241;47.830;12.972;2023-07-13T14:51:59;1.00;;;0.97;;
10389;SDS011;5241;47.830;12.972;2023-07-13T14:54:26;2.50;;;1.60;;
10389;SDS011;5241;47.830;12.972;2023-07-13T14:56:52;1.40;;;1.07;;
10389;SDS011;5241;47.830;12.972;2023-07-13T14:59:18;1.93;;;1.30;;
10389;SDS011;5241;47.830;12.972;2023-07-13T15:01:44;2.67;;;1.40;;
10389;SDS011;5241;47.830;12.972;2023-07-13T15:04:11;1.30;;;1.20;;
10389;SDS011;5241;47.830;12.972;2023-07-13T15:06:53;1.80;;;1.20;;
10389;SDS011;5241;47.830;12.972;2023-07-13T15:09:20;1.50;;;1.20;;
10389;SDS011;5241;47.830;12.972;2023-07-13T15:11:45;2.63;;;1.70;;
10389;SDS011;5241;47.830;12.972;2023-07-13T15:14:11;4.03;;;2.13;;
10389;SDS011;5241;47.830;12.972;2023-07-13T15:16:36;3.30;;;1.40;;
10389;SDS011;5241;47.830;12.972;2023-07-13T15:19:02;2.60;;;1.27;;
10389;SDS011;5241;47.830;12.972;2023-07-13T15:21:28;1.80;;;1.40;;
10389;SDS011;5241;47.830;12.972;2023-07-13T15:23:59;5.30;;;2.03;;
10389;SDS011;5241;47.830;12.972;2023-07-13T15:26:26;2.07;;;1.63;;
10389;SDS011;5241;47.830;12.972;2023-07-13T15:28:51;1.87;;;1.40;;
10389;SDS011;5241;47.830;12.972;2023-07-13T15:31:19;2.20;;;1.43;;
10389;SDS011;5241;47.830;12.972;2023-07-13T15:33:47;2.23;;;1.67;;
10389;SDS011;5241;47.830;12.972;2023-07-13T15:36:15;2.00;;;1.30;;
10389;SDS011;5241;47.830;12.972;2023-07-13T15:38:42;1.57;;;1.47;;